Time;durP1;ratioP1;P1;durP2;ratioP2;P2;SDS_P1;SDS_P2;PMS_P1;PMS_P2;Temp;Humidity;BMP_temperature;BMP_pressure;BME280_temperature;BME280_humidity;BME280_pressure;Samples;Min_cycle;Max_cycle;Signal;HPM_P1;HPM_P2
2024/01/21 00:00:37;;;;;;;36.00;15.15;;;;;;;-3.03;64.59;101542.97;10519830;28;20075;-80
2024/01/21 00:05:40;;;;;;;37.38;16.52;;;;;;;-3.01;64.47;101530.69;10519253;28;20542;-78
2024/01/21 00:10:45;;;;;;;34.90;15.30;;;;;;;-3.20;64.66;101517.66;10513187;28;20076;-79
2024/01/21 00:15:48;;;;;;;37.00;14.20;;;;;;;-3.23;64.94;101506.31;10504207;28;21136;-80
2024/01/21 00:20:51;;;;;;;34.50;15.43;;;;;;;-3.12;64.92;101493.97;10475081;28;20067;-79
2024/01/21 00:25:55;;;;;;;32.80;13.90;;;;;;;-3.09;64.96;101495.69;10506263;28;21393;-81
2024/01/21 00:30:58;;;;;;;35.38;14.50;;;;;;;-3.30;65.42;101492.31;10472920;28;20067;-80
2024/01/21 00:36:01;;;;;;;34.13;15.57;;;;;;;-3.30;65.73;101483.56;10494975;28;21223;-80
2024/01/21 00:41:05;;;;;;;35.88;15.13;;;;;;;-3.24;65.34;101473.88;10514008;28;20052;-79
2024/01/21 00:46:09;;;;;;;32.97;13.82;;;;;;;-3.24;65.04;101458.09;10499550;28;20055;-79
2024/01/21 00:51:11;;;;;;;34.80;13.93;;;;;;;-3.26;64.51;101454.63;10487288;28;20055;-79
2024/01/21 00:56:16;;;;;;;36.13;15.13;;;;;;;-3.03;64.01;101437.81;10511699;28;20076;-80
2024/01/21 01:01:19;;;;;;;40.28;15.85;;;;;;;-3.11;64.74;101422.09;10472888;28;20052;-80
2024/01/21 01:06:22;;;;;;;30.90;13.30;;;;;;;-3.27;64.88;101428.34;10496359;28;20130;-79
2024/01/21 01:11:27;;;;;;;31.85;13.77;;;;;;;-3.09;64.50;101419.47;10510002;28;20527;-80
2024/01/21 01:16:30;;;;;;;31.83;13.73;;;;;;;-3.14;63.82;101416.00;10500388;28;20086;-79
2024/01/21 01:21:34;;;;;;;32.35;13.50;;;;;;;-2.96;63.24;101400.94;10475608;28;20071;-78
2024/01/21 01:26:39;;;;;;;29.63;13.63;;;;;;;-3.02;63.54;101398.34;10493248;28;20048;-79
2024/01/21 01:31:42;;;;;;;34.42;15.68;;;;;;;-3.15;63.53;101383.59;10482853;28;20056;-78
2024/01/21 01:36:45;;;;;;;33.90;14.05;;;;;;;-3.20;64.22;101366.97;10492953;28;20055;-80
2024/01/21 01:41:49;;;;;;;34.35;14.10;;;;;;;-2.96;63.62;101371.16;10493057;28;20092;-78
2024/01/21 01:46:52;;;;;;;29.67;12.75;;;;;;;-2.97;63.21;101365.00;10462186;28;20139;-79
2024/01/21 01:51:56;;;;;;;32.08;13.10;;;;;;;-2.76;62.44;101371.81;10451171;28;20048;-80
2024/01/21 01:57:02;;;;;;;28.13;12.75;;;;;;;-2.59;61.58;101373.41;10436367;28;20055;-79
2024/01/21 02:02:06;;;;;;;26.73;12.82;;;;;;;-2.43;61.29;101358.31;10444228;28;21270;-79
2024/01/21 02:07:09;;;;;;;24.25;11.25;;;;;;;-2.54;61.15;101347.91;10433339;28;20108;-79
2024/01/21 02:12:15;;;;;;;26.55;12.38;;;;;;;-2.47;60.77;101335.53;10451404;28;20059;-77
2024/01/21 02:17:18;;;;;;;28.20;12.65;;;;;;;-2.33;60.63;101328.34;10436555;28;20436;-79
2024/01/21 02:22:24;;;;;;;28.08;12.38;;;;;;;-2.28;59.49;101329.16;10445434;28;20095;-80
2024/01/21 02:27:29;;;;;;;25.25;11.27;;;;;;;-2.12;58.81;101322.81;10455407;28;20877;-79
2024/01/21 02:32:32;;;;;;;26.48;10.45;;;;;;;-2.13;58.47;101328.09;10448561;28;20108;-80
2024/01/21 02:37:35;;;;;;;20.38;10.43;;;;;;;-2.12;58.19;101319.31;10446388;28;20675;-78
2024/01/21 02:42:39;;;;;;;22.95;11.00;;;;;;;-2.00;57.65;101305.09;10462203;28;20098;-79
2024/01/21 02:47:42;;;;;;;20.55;8.98;;;;;;;-2.10;58.10;101302.59;10444308;28;20637;-79
2024/01/21 02:52:45;;;;;;;19.20;9.05;;;;;;;-2.04;57.73;101284.97;10447621;28;20064;-79
2024/01/21 02:57:50;;;;;;;16.30;7.68;;;;;;;-2.06;57.20;101263.91;10438748;28;20087;-80
2024/01/21 03:02:53;;;;;;;18.58;8.88;;;;;;;-2.09;57.29;101253.44;10450645;28;20056;-79
2024/01/21 03:07:56;;;;;;;19.65;9.75;;;;;;;-2.03;56.73;101253.34;10429488;28;20041;-80
2024/01/21 03:13:01;;;;;;;21.70;8.02;;;;;;;-2.08;56.92;101248.16;10431207;28;20048;-80
2024/01/21 03:18:04;;;;;;;17.15;8.90;;;;;;;-2.07;56.78;101235.84;10452670;28;20053;-80
2024/01/21 03:23:07;;;;;;;18.65;8.50;;;;;;;-2.07;56.15;101222.69;10447192;28;20912;-78
2024/01/21 03:28:12;;;;;;;19.27;8.80;;;;;;;-2.05;56.18;101218.28;10441697;28;20080;-79
2024/01/21 03:33:15;;;;;;;22.20;9.23;;;;;;;-1.98;56.18;101213.78;10450802;28;20052;-79
2024/01/21 03:38:20;;;;;;;19.77;9.52;;;;;;;-2.03;56.36;101199.81;10453786;28;20045;-78
2024/01/21 03:43:24;;;;;;;19.17;9.68;;;;;;;-2.18;56.48;101185.13;10467060;28;20633;-79
2024/01/21 03:48:27;;;;;;;21.70;9.90;;;;;;;-2.09;55.73;101175.31;10435656;28;20060;-79
2024/01/21 03:53:30;;;;;;;21.52;10.52;;;;;;;-2.04;55.36;101171.75;10442578;28;20107;-78
2024/01/21 03:58:35;;;;;;;20.92;9.00;;;;;;;-1.95;55.11;101166.31;10438310;28;20049;-79
2024/01/21 04:03:38;;;;;;;18.45;8.60;;;;;;;-1.91;54.80;101154.84;10452006;28;20127;-79
2024/01/21 04:08:41;;;;;;;20.45;9.98;;;;;;;-1.99;54.92;101149.72;10451977;28;20053;-78
2024/01/21 04:13:45;;;;;;;20.83;8.57;;;;;;;-1.89;54.47;101124.09;10467808;28;20045;-79
2024/01/21 04:18:48;;;;;;;19.92;9.10;;;;;;;-1.85;54.20;101112.59;10452086;28;20740;-78
2024/01/21 04:23:51;;;;;;;23.95;10.10;;;;;;;-1.90;54.39;101117.94;10481238;28;20048;-79
2024/01/21 04:28:56;;;;;;;19.35;9.32;;;;;;;-1.79;53.78;101109.84;10473986;28;20049;-79
2024/01/21 04:33:59;;;;;;;18.10;9.20;;;;;;;-1.69;53.60;101100.88;10454435;28;20519;-78
2024/01/21 04:39:02;;;;;;;21.00;8.77;;;;;;;-1.60;53.30;101098.97;10452894;28;20052;-78
2024/01/21 04:44:07;;;;;;;20.02;9.50;;;;;;;-1.70;53.84;101091.25;10434879;28;20059;-78
2024/01/21 04:49:10;;;;;;;19.40;8.60;;;;;;;-1.67;53.34;101080.66;10454283;28;20053;-80
2024/01/21 04:54:13;;;;;;;17.50;8.25;;;;;;;-1.69;52.88;101077.19;10453843;28;20048;-79
2024/01/21 04:59:17;;;;;;;17.55;8.27;;;;;;;-1.59;52.44;101079.63;10448245;28;20045;-80
2024/01/21 05:04:20;;;;;;;14.48;7.82;;;;;;;-1.45;51.66;101059.16;10449770;28;20055;-79
2024/01/21 05:09:23;;;;;;;16.35;6.88;;;;;;;-1.33;51.17;101037.78;10453282;28;21135;-79
2024/01/21 05:14:28;;;;;;;15.20;6.47;;;;;;;-1.25;50.42;101040.28;10455317;28;20100;-80
2024/01/21 05:19:31;;;;;;;15.43;6.82;;;;;;;-1.19;50.20;101037.50;10452043;28;20512;-79
2024/01/21 05:24:35;;;;;;;12.98;6.72;;;;;;;-1.12;49.71;101031.19;10455850;28;20045;-80
2024/01/21 05:29:42;;;;;;;14.13;6.80;;;;;;;-1.18;50.19;101029.56;10471278;28;20049;-78
2024/01/21 05:34:45;;;;;;;13.02;5.78;;;;;;;-1.07;50.36;101013.50;10458077;28;20052;-79
2024/01/21 05:39:48;;;;;;;10.70;5.55;;;;;;;-1.03;49.62;100996.69;10457584;28;20036;-80
2024/01/21 05:44:53;;;;;;;6.32;3.45;;;;;;;-0.56;45.41;100978.84;10460064;28;20093;-81
2024/01/21 05:49:56;;;;;;;10.15;3.33;;;;;;;0.03;43.08;100986.09;10463034;28;20059;-79
2024/01/21 05:54:59;;;;;;;6.30;3.53;;;;;;;0.35;41.94;100971.09;10456196;28;20056;-80
2024/01/21 06:00:03;;;;;;;8.25;3.80;;;;;;;0.39;41.65;100951.59;10451330;28;20103;-78
2024/01/21 06:05:14;;;;;;;6.45;3.22;;;;;;;0.50;41.35;100961.84;10443172;28;21147;-80
2024/01/21 06:10:17;;;;;;;8.20;3.67;;;;;;;0.54;41.18;100951.13;10455392;28;20056;-79
2024/01/21 06:15:22;;;;;;;6.50;3.22;;;;;;;0.62;41.18;100948.25;10450719;28;20088;-79
2024/01/21 06:20:25;;;;;;;8.13;4.00;;;;;;;0.47;41.05;100931.09;10463132;28;20234;-80
2024/01/21 06:25:28;;;;;;;7.95;3.75;;;;;;;0.51;41.35;100950.34;10450479;28;20104;-81
2024/01/21 06:30:32;;;;;;;7.30;3.67;;;;;;;0.58;41.49;100939.56;10463154;28;20059;-81
2024/01/21 06:35:35;;;;;;;7.60;3.70;;;;;;;0.64;41.23;100935.00;10478800;28;20055;-80
2024/01/21 06:40:38;;;;;;;6.47;4.22;;;;;;;0.75;41.38;100930.22;10451563;28;20049;-80
2024/01/21 06:45:42;;;;;;;9.00;3.92;;;;;;;0.55;41.32;100925.53;10454347;28;20063;-79
2024/01/21 06:50:48;;;;;;;9.20;4.63;;;;;;;0.73;41.39;100914.41;10455166;28;20756;-79
2024/01/21 06:55:51;;;;;;;9.05;5.28;;;;;;;0.70;41.15;100903.91;10446468;28;20062;-78
2024/01/21 07:00:55;;;;;;;8.10;3.53;;;;;;;0.71;40.83;100915.34;10428658;28;21526;-79
2024/01/21 07:05:58;;;;;;;14.93;6.25;;;;;;;0.77;40.36;100917.84;10442712;28;20036;-80
2024/01/21 07:11:01;;;;;;;9.82;3.85;;;;;;;0.84;40.43;100914.91;10454407;28;20052;-79
2024/01/21 07:16:06;;;;;;;9.65;4.03;;;;;;;0.78;40.30;100917.75;10464782;28;20076;-78
2024/01/21 07:21:09;;;;;;;6.13;3.97;;;;;;;0.92;40.66;100906.72;10466990;28;20155;-80
2024/01/21 07:26:12;;;;;;;9.25;4.40;;;;;;;0.67;41.22;100904.03;10455588;28;20052;-79
2024/01/21 07:31:17;;;;;;;11.20;4.68;;;;;;;0.75;41.29;100891.41;10438524;28;20048;-80
2024/01/21 07:36:19;;;;;;;7.78;4.40;;;;;;;0.58;41.63;100878.75;10437759;28;20056;-79
2024/01/21 07:41:23;;;;;;;8.10;3.20;;;;;;;0.64;40.84;100879.47;10454513;28;20052;-78
2024/01/21 07:46:28;;;;;;;8.98;4.57;;;;;;;0.82;40.91;100870.91;10466877;28;20060;-79
2024/01/21 07:51:31;;;;;;;10.40;4.45;;;;;;;0.79;40.98;100871.00;10469209;28;21198;-81
2024/01/21 07:56:33;;;;;;;5.20;2.97;;;;;;;1.06;41.62;100883.31;10432132;28;20864;-79
2024/01/21 08:01:38;;;;;;;7.78;4.00;;;;;;;1.10;40.95;100885.88;10435229;28;20135;-80
2024/01/21 08:06:43;;;;;;;8.10;3.60;;;;;;;1.09;40.88;100902.66;10423049;28;20044;-79
2024/01/21 08:11:47;;;;;;;4.13;2.65;;;;;;;0.98;40.97;100919.75;10435657;28;20094;-81
2024/01/21 08:16:51;;;;;;;8.43;4.40;;;;;;;1.16;40.89;100942.13;10455729;28;20049;-81
2024/01/21 08:21:54;;;;;;;6.50;4.18;;;;;;;1.34;40.83;100932.69;10459752;28;21272;-81
2024/01/21 08:26:58;;;;;;;7.88;4.60;;;;;;;1.32;41.08;100920.41;10462183;28;20043;-79
2024/01/21 08:32:06;;;;;;;10.52;4.25;;;;;;;1.28;41.35;100938.19;10458567;28;20063;-78
2024/01/21 08:37:09;;;;;;;12.02;4.55;;;;;;;1.39;41.05;100930.75;10461469;28;20052;-77
2024/01/21 08:42:12;;;;;;;9.13;2.95;;;;;;;1.33;40.81;100923.03;10461494;28;20131;-80
2024/01/21 08:47:16;;;;;;;13.38;2.85;;;;;;;1.33;40.94;100911.56;10467151;28;20129;-79
2024/01/21 08:52:19;;;;;;;10.45;4.18;;;;;;;1.49;41.48;100918.06;10452674;28;20543;-78
2024/01/21 08:57:22;;;;;;;5.53;3.78;;;;;;;1.20;40.82;100906.69;10459928;28;20109;-82
2024/01/21 09:02:27;;;;;;;8.23;3.00;;;;;;;1.70;40.41;100880.22;10454150;28;20064;-81
2024/01/21 09:07:30;;;;;;;7.10;4.30;;;;;;;1.61;40.83;100883.19;10451905;28;20047;-80
2024/01/21 09:12:33;;;;;;;4.72;3.10;;;;;;;1.45;40.75;100871.41;10456430;28;20667;-80
2024/01/21 09:17:37;;;;;;;7.65;3.22;;;;;;;1.60;40.78;100883.25;10462227;28;20057;-80
2024/01/21 09:22:40;;;;;;;8.93;5.05;;;;;;;1.62;41.03;100924.66;10456056;28;20052;-79
2024/01/21 09:27:43;;;;;;;7.80;4.53;;;;;;;1.83;40.72;100924.81;10451131;28;20063;-78
2024/01/21 09:32:47;;;;;;;8.75;4.97;;;;;;;1.71;41.07;100934.94;10454960;28;20048;-79
2024/01/21 09:37:50;;;;;;;6.45;4.10;;;;;;;1.85;41.33;100934.44;10429117;28;20184;-79
2024/01/21 09:42:54;;;;;;;7.30;3.80;;;;;;;1.88;41.60;100960.81;10435113;28;20062;-78
2024/01/21 09:47:58;;;;;;;7.72;3.75;;;;;;;1.89;41.91;100989.06;10452964;28;20094;-79
2024/01/21 09:53:02;;;;;;;8.20;4.20;;;;;;;2.10;41.61;100975.94;10452070;28;20131;-80
2024/01/21 09:58:07;;;;;;;7.60;3.97;;;;;;;2.23;41.57;100934.81;10444714;28;20052;-81
2024/01/21 10:03:13;;;;;;;7.18;3.95;;;;;;;2.23;40.98;100960.47;10454124;28;20054;-79
2024/01/21 10:08:16;;;;;;;6.32;3.45;;;;;;;2.25;40.80;100932.09;10450313;28;20232;-76
2024/01/21 10:13:19;;;;;;;5.80;2.78;;;;;;;2.32;40.75;100900.00;10446938;28;20193;-79
2024/01/21 10:18:23;;;;;;;8.07;3.55;;;;;;;2.61;40.08;100927.22;10461923;28;20182;-78
2024/01/21 10:23:27;;;;;;;6.13;3.45;;;;;;;2.64;39.37;100900.56;10423350;28;21407;-80
2024/01/21 10:28:32;;;;;;;5.43;2.47;;;;;;;2.89;39.11;100891.63;10436288;28;20044;-78
2024/01/21 10:33:37;;;;;;;7.45;3.60;;;;;;;2.72;39.74;100881.69;10453963;28;20053;-79
2024/01/21 10:38:49;;;;;;;7.78;4.20;;;;;;;2.87;39.59;100861.63;10442100;28;20048;-81
2024/01/21 10:43:54;;;;;;;;;;;;;;;2.64;39.63;100873.19;10434757;28;20048;-80
2024/01/21 10:48:59;;;;;;;8.15;3.65;;;;;;;2.26;40.07;100883.47;10450424;28;19924;-81
2024/01/21 10:54:04;;;;;;;8.32;4.68;;;;;;;2.59;40.54;100858.28;10432596;28;20052;-81
2024/01/21 10:59:07;;;;;;;11.50;4.40;;;;;;;2.92;40.86;100851.69;10444621;28;20052;-77
2024/01/21 11:04:13;;;;;;;5.13;3.15;;;;;;;2.78;41.50;100862.88;10443581;28;20139;-76
2024/01/21 11:09:17;;;;;;;6.57;3.83;;;;;;;2.88;41.60;100863.31;10442465;28;20582;-79
2024/01/21 11:14:30;;;;;;;7.35;4.30;;;;;;;2.81;42.22;100873.34;10442412;28;20040;-79
2024/01/21 11:19:45;;;;;;;7.20;3.67;;;;;;;2.74;42.59;100872.75;10417792;28;20943;-79
2024/01/21 11:24:51;;;;;;;7.82;4.38;;;;;;;2.83;43.36;100866.19;10421505;28;20053;-78
2024/01/21 11:29:55;;;;;;;8.13;4.85;;;;;;;2.91;43.54;100861.44;10436112;28;20056;-79
2024/01/21 11:35:08;;;;;;;6.13;3.20;;;;;;;2.92;43.63;100881.72;10450547;28;20140;-77
2024/01/21 11:40:12;;;;;;;4.32;2.90;;;;;;;2.53;44.39;100876.22;10443967;28;20488;-78
2024/01/21 11:45:17;;;;;;;7.45;3.53;;;;;;;2.40;45.74;100889.94;10437696;28;20057;-78
2024/01/21 11:50:21;;;;;;;8.13;4.10;;;;;;;2.93;45.65;100854.25;10428863;28;20037;-81
2024/01/21 11:55:24;;;;;;;7.38;4.55;;;;;;;2.66;46.32;100880.16;10441089;28;20048;-79
2024/01/21 12:00:27;;;;;;;10.85;5.30;;;;;;;3.03;47.00;100857.41;10433396;28;20102;-80
2024/01/21 12:05:32;;;;;;;10.13;5.28;;;;;;;2.87;48.63;100872.22;10435654;28;20571;-79
2024/01/21 12:10:35;;;;;;;6.97;4.78;;;;;;;3.08;49.34;100876.66;10434069;28;20058;-79
2024/01/21 12:15:38;;;;;;;8.82;4.68;;;;;;;2.90;49.91;100878.25;10457702;28;20058;-79
2024/01/21 12:20:43;;;;;;;12.43;3.45;;;;;;;3.20;49.67;100860.19;10457629;28;20505;-79
2024/01/21 12:25:47;;;;;;;9.43;5.53;;;;;;;3.28;50.69;100858.06;10457500;28;20404;-80
2024/01/21 12:30:54;;;;;;;6.90;3.80;;;;;;;2.92;50.65;100891.47;10458329;28;20054;-80
2024/01/21 12:35:59;;;;;;;9.93;5.90;;;;;;;3.23;51.31;100859.19;10454861;28;20045;-80
2024/01/21 12:41:02;;;;;;;9.93;4.80;;;;;;;2.92;53.20;100876.41;10455210;28;20048;-79
2024/01/21 12:46:06;;;;;;;10.15;5.75;;;;;;;3.18;54.26;100845.25;10457016;28;20055;-80
2024/01/21 12:51:10;;;;;;;8.10;4.30;;;;;;;3.30;55.23;100836.78;10455259;28;20717;-79
2024/01/21 12:56:13;;;;;;;6.45;4.05;;;;;;;3.22;56.94;100826.47;10460428;28;20056;-79
2024/01/21 13:01:16;;;;;;;10.32;5.50;;;;;;;3.64;56.81;100821.97;10448783;28;20052;-80
2024/01/21 13:06:21;;;;;;;9.70;5.70;;;;;;;3.57;58.52;100834.69;10440711;28;20139;-80
2024/01/21 13:11:26;;;;;;;10.00;5.30;;;;;;;3.71;59.35;100821.63;10454417;28;20056;-78
2024/01/21 13:16:30;;;;;;;8.43;4.22;;;;;;;3.17;62.51;100820.50;10442714;28;20052;-80
2024/01/21 13:21:35;;;;;;;11.23;5.43;;;;;;;3.50;62.84;100814.63;10440921;28;20211;-79
2024/01/21 13:26:40;;;;;;;6.97;3.10;;;;;;;3.11;64.46;100822.56;10426448;28;20059;-78
2024/01/21 13:31:43;;;;;;;9.88;6.25;;;;;;;3.08;66.24;100822.69;10437091;28;20049;-79
2024/01/21 13:36:48;;;;;;;9.60;5.10;;;;;;;3.15;66.33;100819.69;10429650;28;20045;-81
2024/01/21 13:41:51;;;;;;;6.50;4.20;;;;;;;3.19;67.64;100842.53;10426032;28;20049;-80
2024/01/21 13:46:54;;;;;;;10.52;5.15;;;;;;;2.89;70.29;100847.34;10438948;28;20041;-79
2024/01/21 13:51:59;;;;;;;12.45;5.90;;;;;;;2.65;73.01;100856.31;10449460;28;20040;-80
2024/01/21 13:57:02;;;;;;;12.40;6.07;;;;;;;3.17;71.05;100854.16;10427770;28;20129;-79
2024/01/21 14:02:07;;;;;;;10.27;5.30;;;;;;;2.76;73.09;100873.53;10439163;28;20052;-81
2024/01/21 14:07:18;;;;;;;10.63;5.35;;;;;;;3.05;72.47;100876.78;10455320;28;20053;-79
2024/01/21 14:12:21;;;;;;;10.98;5.38;;;;;;;2.79;73.69;100893.75;10447206;28;20056;-79
2024/01/21 14:17:26;;;;;;;11.30;5.57;;;;;;;2.92;74.03;100891.47;10454035;28;20059;-80
2024/01/21 14:22:31;;;;;;;11.05;5.82;;;;;;;2.94;74.55;100887.84;10430073;28;20049;-81
2024/01/21 14:27:34;;;;;;;10.57;6.13;;;;;;;2.52;77.03;100885.94;10443178;28;20052;-79
2024/01/21 14:32:37;;;;;;;14.38;7.43;;;;;;;3.00;75.18;100874.31;10451882;28;20133;-79
2024/01/21 14:37:41;;;;;;;10.73;6.00;;;;;;;2.71;76.47;100870.19;10450929;28;20048;-79
2024/01/21 14:42:44;;;;;;;8.60;4.75;;;;;;;3.06;74.90;100858.13;10445744;28;20045;-80
2024/01/21 14:47:48;;;;;;;14.02;6.72;;;;;;;2.88;75.85;100853.59;10449345;28;20053;-79
2024/01/21 14:52:52;;;;;;;15.93;7.28;;;;;;;3.04;75.55;100848.50;10449002;28;20563;-80
2024/01/21 14:57:56;;;;;;;11.95;6.55;;;;;;;3.00;75.49;100841.59;10441660;28;20052;-79
2024/01/21 15:03:00;;;;;;;12.63;6.20;;;;;;;3.15;74.44;100832.97;10441740;28;21331;-80
2024/01/21 15:08:05;;;;;;;13.23;8.20;;;;;;;3.43;73.15;100829.13;10449929;28;20120;-79
2024/01/21 15:13:20;;;;;;;12.27;6.82;;;;;;;3.17;74.70;100835.56;10445206;28;20044;-78
2024/01/21 15:18:25;;;;;;;12.18;7.30;;;;;;;3.35;74.40;100844.53;10464176;28;20052;-79
2024/01/21 15:23:37;;;;;;;11.20;6.10;;;;;;;3.27;74.06;100851.03;10435920;28;20513;-78
2024/01/21 15:28:40;;;;;;;13.50;7.10;;;;;;;3.47;73.51;100850.16;10428968;28;20183;-79
2024/01/21 15:33:43;;;;;;;10.45;6.90;;;;;;;3.33;75.36;100838.44;10432031;28;20207;-80
2024/01/21 15:38:48;;;;;;;10.30;7.22;;;;;;;3.42;74.74;100843.31;10438455;28;20468;-79
2024/01/21 15:43:51;;;;;;;14.55;7.93;;;;;;;3.43;74.66;100851.25;10446292;28;20083;-80
2024/01/21 15:48:54;;;;;;;15.18;7.82;;;;;;;3.28;75.79;100828.00;10442553;28;20068;-78
2024/01/21 15:53:59;;;;;;;13.50;7.50;;;;;;;3.41;75.00;100828.34;10441209;28;20297;-78
2024/01/21 15:59:03;;;;;;;12.20;6.55;;;;;;;3.22;76.25;100821.16;10458351;28;20048;-78
2024/01/21 16:04:06;;;;;;;9.95;5.97;;;;;;;3.21;75.61;100819.44;10446236;28;20115;-79
2024/01/21 16:09:10;;;;;;;12.38;7.50;;;;;;;3.39;75.43;100822.22;10440038;28;21470;-80
2024/01/21 16:14:13;;;;;;;13.35;7.22;;;;;;;3.20;76.22;100814.19;10451598;28;20131;-77
2024/01/21 16:19:17;;;;;;;12.38;7.10;;;;;;;3.21;75.91;100830.06;10459071;28;20048;-80
2024/01/21 16:24:21;;;;;;;11.90;6.20;;;;;;;3.26;75.84;100820.13;10459469;28;20049;-78
2024/01/21 16:29:24;;;;;;;13.00;7.53;;;;;;;3.44;75.09;100826.41;10456330;28;20127;-80
2024/01/21 16:34:28;;;;;;;10.98;6.85;;;;;;;3.34;75.32;100819.75;10455879;28;20049;-80
2024/01/21 16:39:38;;;;;;;12.00;7.10;;;;;;;3.38;75.39;100805.44;10457728;28;20045;-77
2024/01/21 16:44:41;;;;;;;13.20;8.00;;;;;;;3.69;74.39;100801.38;10460341;28;20056;-78
2024/01/21 16:49:44;;;;;;;15.73;6.13;;;;;;;3.41;75.83;100802.63;10469992;28;20052;-79
2024/01/21 16:54:53;;;;;;;11.38;6.65;;;;;;;3.56;75.90;100797.56;10461223;28;20045;-76
2024/01/21 17:00:00;;;;;;;11.38;6.80;;;;;;;3.82;74.98;100786.59;10462846;28;20071;-77
2024/01/21 17:05:03;;;;;;;14.80;6.90;;;;;;;3.59;76.28;100778.81;10471777;28;20045;-78
2024/01/21 17:10:14;;;;;;;10.32;6.68;;;;;;;3.66;76.73;100782.94;10461292;28;20111;-79
2024/01/21 17:15:17;;;;;;;13.32;6.30;;;;;;;3.56;77.58;100763.03;10454246;28;20059;-79
2024/01/21 17:20:20;;;;;;;14.18;6.90;;;;;;;3.59;77.98;100754.91;10457968;28;20048;-79
2024/01/21 17:25:25;;;;;;;10.65;6.80;;;;;;;3.66;78.04;100749.25;10456952;28;20048;-79
2024/01/21 17:30:29;;;;;;;11.05;7.10;;;;;;;3.71;78.04;100728.63;10479143;28;20079;-79
2024/01/21 17:35:32;;;;;;;10.32;6.18;;;;;;;3.85;77.15;100743.06;10454547;28;20512;-78
2024/01/21 17:40:36;;;;;;;10.63;4.75;;;;;;;3.62;78.28;100738.81;10450012;28;21304;-79
2024/01/21 17:45:39;;;;;;;10.15;5.63;;;;;;;3.72;79.11;100740.97;10468282;28;20048;-80
2024/01/21 17:50:43;;;;;;;13.52;7.55;;;;;;;3.72;79.07;100733.00;10440843;28;20052;-80
2024/01/21 17:55:49;;;;;;;10.95;5.40;;;;;;;3.55;81.06;100738.25;10428764;28;21202;-81
2024/01/21 18:00:54;;;;;;;15.60;6.50;;;;;;;3.89;79.39;100742.84;10461231;28;20079;-79
2024/01/21 18:05:57;;;;;;;10.23;6.18;;;;;;;3.91;79.11;100729.50;10437248;28;20151;-79
2024/01/21 18:11:03;;;;;;;12.90;6.40;;;;;;;3.87;79.76;100717.28;10445354;28;20044;-79
2024/01/21 18:16:07;;;;;;;9.60;6.05;;;;;;;3.68;81.72;100723.47;10457842;28;20155;-80
2024/01/21 18:21:14;;;;;;;12.45;6.80;;;;;;;3.90;80.43;100702.06;10444282;28;20120;-79
2024/01/21 18:26:19;;;;;;;10.82;6.45;;;;;;;3.82;81.97;100706.03;10454392;28;20055;-79
2024/01/21 18:31:22;;;;;;;11.63;7.00;;;;;;;3.95;81.43;100723.97;10440464;28;20052;-79
2024/01/21 18:36:25;;;;;;;12.45;6.55;;;;;;;3.87;81.92;100728.78;10445221;28;20063;-78
2024/01/21 18:41:31;;;;;;;6.70;3.95;;;;;;;3.80;82.61;100745.94;10449263;28;20052;-78
2024/01/21 18:46:35;;;;;;;9.90;5.55;;;;;;;3.83;82.22;100755.56;10437907;28;20048;-76
2024/01/21 18:51:38;;;;;;;9.52;5.35;;;;;;;3.94;82.55;100766.56;10448992;28;20057;-78
2024/01/21 18:56:43;;;;;;;10.38;6.57;;;;;;;4.05;82.00;100764.25;10441836;28;20055;-77
2024/01/21 19:01:46;;;;;;;14.90;6.63;;;;;;;4.20;81.41;100775.97;10426041;28;20052;-80
2024/01/21 19:06:49;;;;;;;7.72;5.60;;;;;;;4.14;81.47;100777.13;10448792;28;20051;-80
2024/01/21 19:11:53;;;;;;;9.38;5.18;;;;;;;3.82;83.88;100772.47;10437760;28;20040;-79
2024/01/21 19:16:57;;;;;;;11.07;6.80;;;;;;;4.07;83.30;100766.84;10447188;28;20090;-78
2024/01/21 19:22:00;;;;;;;10.10;4.10;;;;;;;3.85;84.91;100761.69;10449661;28;20044;-78
2024/01/21 19:27:05;;;;;;;12.93;4.93;;;;;;;3.97;84.30;100726.53;10454370;28;20052;-79
2024/01/21 19:32:08;;;;;;;10.82;6.15;;;;;;;3.98;84.58;100709.66;10439338;28;20111;-77
2024/01/21 19:37:11;;;;;;;10.32;6.10;;;;;;;3.70;85.27;100694.16;10470008;28;20426;-80
2024/01/21 19:42:16;;;;;;;10.48;6.22;;;;;;;3.57;85.53;100672.66;10454483;28;20080;-79
2024/01/21 19:47:20;;;;;;;13.07;7.00;;;;;;;3.57;85.23;100658.50;10442984;28;20048;-78
2024/01/21 19:52:23;;;;;;;15.98;6.68;;;;;;;3.55;85.66;100634.66;10444443;28;20286;-79
2024/01/21 19:57:29;;;;;;;12.32;5.63;;;;;;;3.36;86.84;100634.66;10442184;28;20049;-79
2024/01/21 20:02:32;;;;;;;16.27;6.55;;;;;;;3.46;86.97;100621.81;10445754;28;20144;-78
2024/01/21 20:07:35;;;;;;;9.75;5.70;;;;;;;3.63;86.77;100607.72;10461377;28;20156;-77
2024/01/21 20:12:40;;;;;;;13.45;5.97;;;;;;;3.84;85.53;100588.09;10479590;28;20076;-81
2024/01/21 20:17:45;;;;;;;15.50;7.45;;;;;;;4.02;84.34;100583.63;10454270;28;20053;-81
2024/01/21 20:22:50;;;;;;;15.00;6.28;;;;;;;3.92;85.00;100577.94;10472843;28;20094;-82
2024/01/21 20:27:57;;;;;;;15.45;7.35;;;;;;;3.85;86.27;100554.38;10464770;28;20053;-81
2024/01/21 20:33:01;;;;;;;13.63;5.57;;;;;;;3.80;86.80;100553.75;10479243;28;21179;-78
2024/01/21 20:38:08;;;;;;;10.20;4.88;;;;;;;3.91;86.79;100543.44;10472167;28;20276;-79
2024/01/21 20:43:12;;;;;;;15.52;7.32;;;;;;;4.02;85.86;100525.13;10469473;28;20055;-79
2024/01/21 20:48:15;;;;;;;11.10;5.78;;;;;;;4.02;86.24;100511.00;10452957;28;20060;-79
2024/01/21 20:53:18;;;;;;;9.30;5.20;;;;;;;4.02;87.55;100493.25;10462174;28;20049;-78
2024/01/21 20:58:23;;;;;;;15.13;6.72;;;;;;;4.01;87.56;100491.53;10446774;28;20075;-81
2024/01/21 21:03:26;;;;;;;13.13;6.32;;;;;;;4.15;86.51;100489.00;10460381;28;20049;-80
2024/01/21 21:08:29;;;;;;;10.32;6.38;;;;;;;4.01;87.86;100480.91;10478114;28;20052;-79
2024/01/21 21:13:34;;;;;;;10.32;5.95;;;;;;;4.09;87.66;100451.25;10441922;28;20057;-78
2024/01/21 21:18:37;;;;;;;11.50;5.72;;;;;;;4.02;88.55;100428.59;10428381;28;20053;-81
2024/01/21 21:23:42;;;;;;;16.48;7.05;;;;;;;4.21;87.00;100415.16;10435536;28;20045;-79
2024/01/21 21:28:47;;;;;;;9.60;5.68;;;;;;;4.13;87.66;100399.63;10445315;28;20106;-80
2024/01/21 21:33:51;;;;;;;11.48;4.90;;;;;;;4.08;88.10;100380.41;10439633;28;20045;-79
2024/01/21 21:38:54;;;;;;;12.20;5.00;;;;;;;4.17;87.62;100385.25;10441217;28;20055;-80
2024/01/21 21:43:59;;;;;;;10.63;5.20;;;;;;;4.15;87.68;100365.84;10467908;28;21174;-77
2024/01/21 21:49:02;;;;;;;14.13;4.65;;;;;;;4.39;86.57;100342.38;10467411;28;20045;-80
2024/01/21 21:54:05;;;;;;;9.35;4.18;;;;;;;4.40;86.49;100344.06;10458250;28;20056;-81
2024/01/21 21:59:10;;;;;;;5.80;2.95;;;;;;;4.59;85.33;100351.88;10455482;28;20052;-80
2024/01/21 22:04:13;;;;;;;9.55;3.28;;;;;;;4.82;83.96;100355.88;10462416;28;20043;-78
2024/01/21 22:09:16;;;;;;;8.00;3.72;;;;;;;4.55;86.14;100358.31;10461085;28;20128;-79
2024/01/21 22:14:21;;;;;;;7.38;2.83;;;;;;;4.71;84.73;100345.00;10465133;28;20040;-80
2024/01/21 22:19:27;;;;;;;8.50;3.17;;;;;;;4.96;83.44;100326.66;10453452;28;20045;-80
2024/01/21 22:24:30;;;;;;;7.35;2.90;;;;;;;4.68;85.18;100323.88;10466455;28;20047;-78
2024/01/21 22:29:34;;;;;;;8.05;2.97;;;;;;;5.00;83.26;100330.91;10475647;28;20052;-79
2024/01/21 22:34:39;;;;;;;5.82;3.17;;;;;;;4.92;83.50;100340.25;10471615;28;20048;-75
2024/01/21 22:39:42;;;;;;;4.53;2.95;;;;;;;4.65;86.38;100322.25;10472902;28;20098;-78
2024/01/21 22:44:49;;;;;;;7.72;3.53;;;;;;;4.81;86.67;100319.56;10444175;28;20123;-78
2024/01/21 22:49:52;;;;;;;6.45;3.40;;;;;;;4.89;86.43;100296.03;10451298;28;20072;-80
2024/01/21 22:54:56;;;;;;;8.10;3.17;;;;;;;4.78;86.73;100287.81;10448691;28;20163;-80
2024/01/21 23:00:04;;;;;;;9.85;3.78;;;;;;;4.95;86.46;100271.69;10453045;28;20072;-78
2024/01/21 23:05:07;;;;;;;7.85;3.17;;;;;;;4.73;87.50;100282.75;10460285;28;20123;-78
2024/01/21 23:10:11;;;;;;;7.00;3.58;;;;;;;5.24;85.36;100274.47;10485060;28;20052;-79
2024/01/21 23:15:15;;;;;;;7.40;3.75;;;;;;;5.20;85.00;100267.59;10462792;28;20128;-78